Addington, OK

12:05 PM CST on February 08, 2016 (GMT -0600)
Halliburton | | Change Station
CLOSE
Current Station
Airport
Location: Duncan,
Elevation: 1112 ft
Nearby Weather Stations
Active Advisory: Wind Advisory

Elev 1112 ft 34.48 °N, 97.96 °W | Updated 10 minutes ago

Clear
Clear
45 °F
Feels Like 36 °F
N
23
Wind Variable Wind from NNW
Gusts 37 mph

Today
High -- | Low -- °F
--% Chance of Precip.
Yesterday
High -- | Low -- °F
Precip. -- in
Pressure 30.35 in
Visibility 10.0 miles
Clouds Clear
Windchill 36 °F
Dew Point 12 °F
Humidity 27%
Rainfall 0.00 in
Snow Depth Not available.
7:24 AM 6:08 PM
New Moon, 0% visible
METAR KDUC 081755Z AUTO 34020G32KT 10SM CLR 07/M11 A3035 RMK AO2 TSNO
Pressure 30.35 in
Visibility 10.0 miles
Clouds Clear
Windchill 36 °F
Dew Point 12 °F
Humidity 27%
Rainfall 0.00 in
Snow Depth Not available.
7:24 AM 6:08 PM
New Moon, 0% visible
METAR KDUC 081755Z AUTO 34020G32KT 10SM CLR 07/M11 A3035 RMK AO2 TSNO

10-Day Weather Forecast

Almanac

Astronomy

Feb. 08, 2016 Rise Set
Actual Time
Civil Twilight
Nautical Twilight
Astronomical Twilight
Moon
Length of Visible Light
Length of Day
Tomorrow will be .
, % of the Moon is Illuminated

Today's Extremes

State Highs State Lows

Community

WunderPhotos

Upload Photos

1,891,475 photos uploaded!

WunderBlog® & News

Nearby

Air Quality

  Air Quality AQ Index Pollutant
Not available.

Snow Depth

Station Depth Elevation

Earthquake Activity

City Distance Mag. Time & Date
Minimum magnitude displayed is 2.5.

Coastal Water Temperatures

Place Temperature

Stations

Nearby Weather Stations

Station Location Temp. Windchill Dew Point Humidity Wind Precip. Elev Updated Type
                   

Watches & Warnings

Wind Advisory
Issued: 11:31 AM CST Feb. 8, 2016 – National Weather Service

... Wind Advisory remains in effect until 6 PM CST this evening...

* timing... until this evening.

* Winds... north 30 to 35 mph with gusts 40 to 50 mph.

* Impacts... driving may become difficult at times especially on
west and east roadways. Residents should ensure lightweight
outdoor objects are secured.

Precautionary/preparedness actions...

Be careful if you have to travel or if you are working or playing
outside.